createdAt,value
2023-03-11T00:00:16.930Z,2.25
2023-03-11T00:03:23.060Z,1.20
2023-03-11T00:06:28.415Z,1.38
2023-03-11T00:09:31.621Z,1.20
2023-03-11T00:12:34.787Z,1.50
2023-03-11T00:15:39.087Z,1.00
2023-03-11T00:18:42.272Z,3.72
2023-03-11T00:21:46.822Z,1.20
2023-03-11T00:24:49.935Z,1.10
2023-03-11T00:27:53.420Z,5.40
2023-03-11T00:30:56.548Z,1.52
2023-03-11T00:33:59.734Z,1.70
2023-03-11T00:37:04.411Z,2.20
2023-03-11T00:40:10.642Z,1.30
2023-03-11T00:43:14.004Z,1.20
2023-03-11T00:46:17.785Z,1.20
2023-03-11T00:49:21.079Z,1.55
2023-03-11T00:52:25.823Z,1.17
2023-03-11T00:55:31.555Z,1.20
2023-03-11T00:58:36.654Z,1.03
2023-03-11T01:01:40.281Z,1.20
2023-03-11T01:04:43.625Z,1.50
2023-03-11T01:07:49.734Z,1.88
2023-03-11T01:10:52.830Z,1.15
2023-03-11T01:13:56.264Z,1.30
2023-03-11T01:16:59.626Z,1.20
2023-03-11T01:20:05.195Z,1.17
2023-03-11T01:23:11.810Z,1.23
2023-03-11T01:26:15.525Z,1.30
2023-03-11T01:29:18.720Z,1.00
2023-03-11T01:32:21.823Z,1.40
2023-03-11T01:35:27.119Z,1.27
2023-03-11T01:38:31.646Z,0.90
2023-03-11T01:41:35.027Z,1.15
2023-03-11T01:44:39.269Z,1.88
2023-03-11T01:47:42.479Z,1.35
2023-03-11T01:50:51.509Z,1.20
2023-03-11T01:53:57.721Z,1.23
2023-03-11T01:57:06.177Z,1.50
2023-03-11T02:00:15.564Z,1.50
2023-03-11T02:03:22.933Z,1.60
2023-03-11T02:06:29.062Z,1.42
2023-03-11T02:09:34.119Z,1.70
2023-03-11T02:12:38.718Z,1.80
2023-03-11T02:15:42.581Z,1.60
2023-03-11T02:18:45.851Z,1.65
2023-03-11T02:21:49.807Z,1.40
2023-03-11T02:25:04.018Z,1.52
2023-03-11T02:28:13.072Z,1.48
2023-03-11T02:31:17.059Z,1.48
2023-03-11T02:34:25.374Z,1.50
2023-03-11T02:37:28.911Z,1.50
2023-03-11T02:40:45.021Z,1.58
2023-03-11T02:43:50.133Z,1.42
2023-03-11T02:46:54.556Z,1.60
2023-03-11T02:49:59.056Z,1.42
2023-03-11T02:53:02.330Z,1.50
2023-03-11T02:56:06.075Z,1.80
2023-03-11T02:59:12.079Z,1.77
2023-03-11T03:02:15.522Z,1.77
2023-03-11T03:05:20.504Z,1.35
2023-03-11T03:08:24.295Z,1.30
2023-03-11T03:11:27.503Z,2.45
2023-03-11T03:14:32.531Z,1.70
2023-03-11T03:17:36.023Z,1.20
2023-03-11T03:20:41.100Z,1.70
2023-03-11T03:23:44.379Z,1.10
2023-03-11T03:26:48.141Z,2.00
2023-03-11T03:29:52.793Z,2.25
2023-03-11T03:32:56.627Z,1.30
2023-03-11T03:36:00.158Z,1.42
2023-03-11T03:39:07.638Z,1.57
2023-03-11T03:42:13.304Z,3.30
2023-03-11T03:45:19.472Z,1.70
2023-03-11T03:48:23.570Z,1.35
2023-03-11T03:51:27.051Z,1.98
2023-03-11T03:54:38.734Z,2.03
2023-03-11T03:57:42.114Z,1.45
2023-03-11T04:00:49.971Z,1.60
2023-03-11T04:03:53.399Z,3.55
2023-03-11T04:06:57.697Z,1.35
2023-03-11T04:10:00.919Z,1.42
2023-03-11T04:13:05.764Z,1.73
2023-03-11T04:16:16.681Z,3.25
2023-03-11T04:19:20.024Z,3.13
2023-03-11T04:22:23.511Z,1.20
2023-03-11T04:25:26.807Z,1.98
2023-03-11T04:28:30.430Z,2.38
2023-03-11T04:34:21.075Z,1.92
2023-03-11T04:37:28.267Z,2.58
2023-03-11T04:40:32.022Z,1.90
2023-03-11T04:43:35.544Z,1.35
2023-03-11T04:46:38.889Z,1.77
2023-03-11T04:49:45.647Z,1.45
2023-03-11T04:52:49.633Z,2.80
2023-03-11T04:55:53.800Z,1.25
2023-03-11T04:58:57.114Z,1.75
2023-03-11T05:02:02.101Z,2.97
2023-03-11T05:05:10.157Z,1.02
2023-03-11T05:08:14.464Z,1.20
2023-03-11T05:11:18.135Z,1.20
2023-03-11T05:14:23.418Z,1.83
2023-03-11T05:17:27.771Z,2.47
2023-03-11T05:20:33.355Z,1.38
2023-03-11T05:23:36.636Z,2.15
2023-03-11T05:26:40.084Z,1.98
2023-03-11T05:29:43.732Z,3.05
2023-03-11T05:32:49.006Z,4.82
2023-03-11T05:35:54.981Z,2.88
2023-03-11T05:38:58.607Z,1.40
2023-03-11T05:42:01.934Z,2.92
2023-03-11T05:45:05.791Z,3.15
2023-03-11T05:48:10.517Z,4.57
2023-03-11T05:51:16.294Z,2.92
2023-03-11T05:54:21.995Z,4.77
2023-03-11T05:57:28.275Z,2.42
2023-03-11T06:00:32.529Z,1.65
2023-03-11T06:03:38.821Z,1.92
2023-03-11T06:06:43.512Z,2.55
2023-03-11T06:09:50.978Z,2.78
2023-03-11T06:12:55.395Z,1.75
2023-03-11T06:16:09.461Z,4.72
2023-03-11T06:19:13.644Z,3.15
2023-03-11T06:22:23.035Z,2.05
2023-03-11T06:25:26.318Z,4.13
2023-03-11T06:28:31.191Z,2.92
2023-03-11T06:31:34.526Z,1.98
2023-03-11T06:34:43.983Z,2.75
2023-03-11T06:37:48.759Z,3.20
2023-03-11T06:40:52.091Z,3.00
2023-03-11T06:43:55.341Z,3.40
2023-03-11T06:46:58.663Z,3.05
2023-03-11T06:50:06.445Z,2.45
2023-03-11T06:53:11.687Z,4.82
2023-03-11T06:56:15.100Z,3.22
2023-03-11T06:59:23.802Z,4.25
2023-03-11T07:02:27.168Z,3.13
2023-03-11T07:05:30.885Z,3.60
2023-03-11T07:08:40.530Z,6.65
2023-03-11T07:11:44.636Z,3.03
2023-03-11T07:14:55.926Z,3.42
2023-03-11T07:17:59.462Z,4.38
2023-03-11T07:21:04.615Z,2.28
2023-03-11T07:24:09.339Z,3.85
2023-03-11T07:27:12.565Z,2.15
2023-03-11T07:30:16.054Z,6.53
2023-03-11T07:33:19.721Z,3.65
2023-03-11T07:36:28.357Z,2.30
2023-03-11T07:39:32.927Z,3.10
2023-03-11T07:42:36.461Z,3.90
2023-03-11T07:45:39.618Z,4.90
2023-03-11T07:48:43.371Z,4.00
2023-03-11T07:51:46.713Z,4.85
2023-03-11T07:54:51.399Z,5.13
2023-03-11T07:57:54.567Z,2.63
2023-03-11T08:00:57.941Z,9.02
2023-03-11T08:04:01.105Z,5.38
2023-03-11T08:07:04.300Z,4.47
2023-03-11T08:10:10.810Z,3.08
2023-03-11T08:13:14.013Z,5.18
2023-03-11T08:16:20.010Z,4.82
2023-03-11T08:19:23.222Z,4.68
2023-03-11T08:22:26.533Z,2.38
2023-03-11T08:25:31.425Z,2.83
2023-03-11T08:28:35.018Z,4.72
2023-03-11T08:31:38.404Z,2.28
2023-03-11T08:34:41.623Z,2.42
2023-03-11T08:37:44.928Z,3.58
2023-03-11T08:40:49.845Z,2.33
2023-03-11T08:43:53.193Z,7.65
2023-03-11T08:46:56.522Z,3.80
2023-03-11T08:49:59.724Z,1.77
2023-03-11T08:53:03.243Z,2.80
2023-03-11T08:56:08.436Z,2.53
2023-03-11T08:59:11.709Z,5.10
2023-03-11T09:02:14.912Z,3.30
2023-03-11T09:05:18.812Z,2.65
2023-03-11T09:08:21.924Z,3.90
2023-03-11T09:11:26.921Z,2.97
2023-03-11T09:14:30.042Z,4.03
2023-03-11T09:17:33.212Z,1.60
2023-03-11T09:20:38.772Z,1.52
2023-03-11T09:23:44.368Z,2.78
2023-03-11T09:26:49.283Z,3.42
2023-03-11T09:29:52.519Z,1.38
2023-03-11T09:32:55.724Z,2.50
2023-03-11T09:35:59.118Z,3.20
2023-03-11T09:39:02.996Z,2.75
2023-03-11T09:42:18.027Z,3.22
2023-03-11T09:45:25.764Z,1.70
2023-03-11T09:48:38.274Z,4.15
2023-03-11T09:51:47.136Z,1.98
2023-03-11T09:54:54.103Z,1.98
2023-03-11T09:58:01.144Z,3.05
2023-03-11T10:01:11.389Z,5.25
2023-03-11T10:04:20.187Z,1.55
2023-03-11T10:07:29.687Z,3.85
2023-03-11T10:10:40.554Z,3.20
2023-03-11T10:13:51.496Z,1.90
2023-03-11T10:17:02.098Z,2.55
2023-03-11T10:20:12.863Z,2.35
2023-03-11T10:23:26.105Z,2.20
2023-03-11T10:26:33.583Z,4.78
2023-03-11T10:29:49.279Z,3.78
2023-03-11T10:34:27.168Z,4.35
2023-03-11T10:37:48.255Z,4.70
2023-03-11T10:40:57.185Z,1.67
2023-03-11T10:44:05.051Z,2.03
2023-03-11T10:47:17.711Z,1.10
2023-03-11T10:50:22.197Z,1.17
2023-03-11T10:53:25.486Z,1.30
2023-03-11T10:56:32.808Z,1.27
2023-03-11T10:59:48.515Z,2.33
2023-03-11T11:02:57.130Z,1.83
2023-03-11T11:06:04.937Z,2.72
2023-03-11T11:09:16.723Z,5.85
2023-03-11T11:12:22.266Z,2.17
2023-03-11T11:15:27.825Z,2.60
2023-03-11T11:18:34.969Z,1.48
2023-03-11T11:21:43.209Z,3.90
2023-03-11T11:24:48.011Z,3.58
2023-03-11T11:27:56.030Z,4.43
2023-03-11T11:31:01.343Z,9.48
2023-03-11T11:34:07.074Z,7.40
2023-03-11T11:37:14.402Z,7.28
2023-03-11T11:40:27.353Z,4.20
2023-03-11T11:43:42.475Z,2.45
2023-03-11T11:46:51.187Z,2.15
2023-03-11T11:49:58.460Z,1.40
2023-03-11T11:53:13.345Z,3.92
2023-03-11T11:56:16.498Z,4.03
2023-03-11T11:59:22.998Z,2.35
2023-03-11T12:02:46.536Z,2.78
2023-03-11T12:05:57.880Z,2.70
2023-03-11T12:09:15.572Z,3.58
2023-03-11T12:12:26.570Z,2.27
2023-03-11T12:15:35.288Z,2.20
2023-03-11T12:18:43.932Z,1.50
2023-03-11T12:22:04.102Z,1.90
2023-03-11T12:25:22.090Z,3.05
2023-03-11T12:28:37.866Z,1.60
2023-03-11T12:31:42.416Z,2.88
2023-03-11T12:34:47.925Z,3.00
2023-03-11T12:38:08.846Z,2.33
2023-03-11T12:41:30.835Z,2.38
2023-03-11T12:44:34.117Z,2.63
2023-03-11T12:47:37.401Z,3.10
2023-03-11T12:50:43.554Z,1.90
2023-03-11T12:53:48.658Z,5.63
2023-03-11T12:56:57.401Z,4.47
2023-03-11T13:00:23.052Z,3.03
2023-03-11T13:03:46.122Z,2.92
2023-03-11T13:07:27.944Z,3.58
2023-03-11T13:10:40.434Z,3.05
2023-03-11T13:13:45.078Z,4.90
2023-03-11T13:16:48.721Z,2.28
2023-03-11T13:19:54.696Z,2.95
2023-03-11T13:23:23.533Z,2.35
2023-03-11T13:26:41.690Z,3.72
2023-03-11T13:29:57.170Z,3.80
2023-03-11T13:33:19.475Z,5.85
2023-03-11T13:36:37.450Z,3.05
2023-03-11T13:39:52.872Z,2.28
2023-03-11T13:43:03.787Z,1.98
2023-03-11T13:46:15.552Z,2.22
2023-03-11T13:49:32.422Z,5.38
2023-03-11T13:52:37.703Z,3.05
2023-03-11T13:55:47.286Z,2.05
2023-03-11T13:58:50.405Z,3.33
2023-03-11T14:01:57.936Z,3.40
2023-03-11T14:05:06.939Z,3.28
2023-03-11T14:08:19.175Z,3.38
2023-03-11T14:11:27.122Z,4.53
2023-03-11T14:14:44.100Z,2.65
2023-03-11T14:17:48.948Z,4.90
2023-03-11T14:20:52.744Z,5.13
2023-03-11T14:23:57.092Z,3.50
2023-03-11T14:27:04.969Z,10.98
2023-03-11T14:30:09.315Z,3.67
2023-03-11T14:33:22.783Z,3.00
2023-03-11T14:36:28.254Z,3.08
2023-03-11T14:39:32.787Z,4.60
2023-03-11T14:42:39.264Z,28.95
2023-03-11T14:45:44.885Z,3.45
2023-03-11T14:48:50.123Z,2.15
2023-03-11T14:51:59.552Z,2.28
2023-03-11T14:55:05.599Z,4.05
2023-03-11T14:58:17.322Z,3.42
2023-03-11T15:01:26.001Z,2.97
2023-03-11T15:04:34.306Z,5.60
2023-03-11T15:07:38.903Z,3.33
2023-03-11T15:11:03.356Z,2.97
2023-03-11T15:14:21.834Z,5.55
2023-03-11T15:17:37.422Z,1.58
2023-03-11T15:20:47.875Z,2.22
2023-03-11T15:23:53.579Z,2.40
2023-03-11T15:26:58.768Z,3.38
2023-03-11T15:30:03.760Z,7.57
2023-03-11T15:33:21.916Z,3.35
2023-03-11T15:36:34.677Z,3.55
2023-03-11T15:39:46.824Z,6.47
2023-03-11T15:43:20.241Z,3.35
2023-03-11T15:46:23.426Z,5.20
2023-03-11T15:49:26.911Z,3.10
2023-03-11T15:52:31.415Z,5.55
2023-03-11T15:55:34.546Z,4.60
2023-03-11T15:58:39.005Z,4.13
2023-03-11T16:01:42.240Z,3.40
2023-03-11T16:04:45.541Z,4.53
2023-03-11T16:07:50.630Z,4.60
2023-03-11T16:10:53.866Z,4.65
2023-03-11T16:13:56.938Z,3.60
2023-03-11T16:17:00.452Z,4.38
2023-03-11T16:20:03.698Z,2.38
2023-03-11T16:23:12.368Z,5.30
2023-03-11T16:26:17.167Z,4.10
2023-03-11T16:29:23.118Z,14.10
2023-03-11T16:34:21.809Z,4.75
2023-03-11T16:37:25.016Z,3.95
2023-03-11T16:40:29.320Z,2.67
2023-03-11T16:43:32.922Z,6.07
2023-03-11T16:46:36.107Z,2.63
2023-03-11T16:49:40.798Z,4.35
2023-03-11T16:52:43.972Z,3.65
2023-03-11T16:55:48.095Z,3.45
2023-03-11T16:58:51.441Z,2.85
2023-03-11T17:01:54.730Z,8.15
2023-03-11T17:04:59.636Z,3.90
2023-03-11T17:08:04.363Z,4.38
2023-03-11T17:11:14.665Z,7.15
2023-03-11T17:14:17.858Z,2.95
2023-03-11T17:17:21.761Z,3.10
2023-03-11T17:20:26.237Z,4.90
2023-03-11T17:23:29.397Z,4.20
2023-03-11T17:26:32.669Z,6.32
2023-03-11T17:29:35.868Z,5.85
2023-03-11T17:32:39.466Z,6.97
2023-03-11T17:35:44.033Z,5.78
2023-03-11T17:38:48.563Z,6.55
2023-03-11T17:41:51.997Z,3.55
2023-03-11T17:44:56.761Z,4.60
2023-03-11T17:47:59.864Z,5.18
2023-03-11T17:51:10.132Z,5.43
2023-03-11T17:54:13.269Z,5.72
2023-03-11T17:57:16.398Z,4.72
2023-03-11T18:00:20.426Z,7.97
2023-03-11T18:03:23.971Z,5.25
2023-03-11T18:06:29.852Z,5.50
2023-03-11T18:09:33.012Z,5.90
2023-03-11T18:12:36.215Z,5.10
2023-03-11T18:15:39.421Z,3.95
2023-03-11T18:18:43.500Z,8.35
2023-03-11T18:21:48.046Z,4.78
2023-03-11T18:24:51.185Z,6.13
2023-03-11T18:27:54.305Z,5.07
2023-03-11T18:30:59.111Z,4.57
2023-03-11T18:34:04.469Z,5.53
2023-03-11T18:37:08.967Z,8.95
2023-03-11T18:40:13.602Z,5.43
2023-03-11T18:43:16.776Z,6.05
2023-03-11T18:46:20.240Z,7.45
2023-03-11T18:49:23.577Z,4.40
2023-03-11T18:52:28.116Z,4.80
2023-03-11T18:55:31.476Z,5.55
2023-03-11T18:58:35.098Z,7.15
2023-03-11T19:01:38.367Z,6.90
2023-03-11T19:04:41.749Z,5.82
2023-03-11T19:07:46.332Z,5.85
2023-03-11T19:10:49.544Z,6.75
2023-03-11T19:13:52.828Z,7.95
2023-03-11T19:16:56.037Z,8.32
2023-03-11T19:19:59.203Z,9.65
2023-03-11T19:23:05.071Z,9.63
2023-03-11T19:26:08.320Z,7.03
2023-03-11T19:29:11.486Z,7.38
2023-03-11T19:32:14.639Z,7.68
2023-03-11T19:35:18.022Z,10.50
2023-03-11T19:38:23.640Z,11.48
2023-03-11T19:41:26.787Z,10.13
2023-03-11T19:44:29.952Z,7.45
2023-03-11T19:47:33.085Z,7.65
2023-03-11T19:50:36.304Z,13.20
2023-03-11T19:53:41.682Z,13.30
2023-03-11T19:56:45.073Z,13.00
2023-03-11T19:59:48.241Z,18.17
2023-03-11T20:02:51.720Z,22.13
2023-03-11T20:05:57.798Z,17.38
2023-03-11T20:09:02.688Z,33.03
2023-03-11T20:12:06.823Z,17.63
2023-03-11T20:15:11.315Z,18.67
2023-03-11T20:18:14.510Z,16.83
2023-03-11T20:21:17.775Z,19.38
2023-03-11T20:24:22.536Z,19.25
2023-03-11T20:27:25.708Z,20.02
2023-03-11T20:30:29.544Z,17.55
2023-03-11T20:33:33.804Z,18.40
2023-03-11T20:36:37.069Z,17.33
2023-03-11T20:39:41.728Z,18.02
2023-03-11T20:42:47.023Z,24.73
2023-03-11T20:45:50.920Z,25.38
2023-03-11T20:48:54.072Z,25.48
2023-03-11T20:51:57.536Z,24.13
2023-03-11T20:55:02.343Z,27.50
2023-03-11T20:58:05.683Z,34.13
2023-03-11T21:01:13.725Z,29.75
2023-03-11T21:04:17.247Z,32.67
2023-03-11T21:07:20.850Z,32.90
2023-03-11T21:10:25.373Z,31.02
2023-03-11T21:13:28.859Z,31.13
2023-03-11T21:16:32.316Z,26.63
2023-03-11T21:19:35.595Z,27.70
2023-03-11T21:22:38.762Z,27.90
2023-03-11T21:25:43.559Z,27.50
2023-03-11T21:28:47.321Z,26.65
2023-03-11T21:31:51.307Z,29.20
2023-03-11T21:34:57.157Z,29.63
2023-03-11T21:38:00.440Z,26.73
2023-03-11T21:41:10.177Z,29.85
2023-03-11T21:44:13.310Z,30.30
2023-03-11T21:47:16.593Z,34.08
2023-03-11T21:50:19.995Z,25.17
2023-03-11T21:53:23.186Z,20.38
2023-03-11T21:56:28.437Z,26.70
2023-03-11T21:59:31.727Z,22.25
2023-03-11T22:02:34.872Z,28.00
2023-03-11T22:05:38.471Z,24.42
2023-03-11T22:08:42.419Z,25.17
2023-03-11T22:11:47.269Z,28.13
2023-03-11T22:14:51.215Z,29.75
2023-03-11T22:17:54.515Z,25.67
2023-03-11T22:20:58.686Z,26.08
2023-03-11T22:24:01.884Z,22.92
2023-03-11T22:27:06.381Z,24.95
2023-03-11T22:30:10.720Z,23.30
2023-03-11T22:34:20.509Z,22.10
2023-03-11T22:37:23.651Z,25.25
2023-03-11T22:40:27.313Z,22.58
2023-03-11T22:43:30.453Z,20.52
2023-03-11T22:46:33.699Z,22.35
2023-03-11T22:49:38.257Z,22.10
2023-03-11T22:52:41.441Z,23.77
2023-03-11T22:55:45.478Z,23.25
2023-03-11T22:58:48.961Z,20.55
2023-03-11T23:01:52.579Z,19.98
2023-03-11T23:04:57.070Z,22.90
2023-03-11T23:08:00.426Z,21.40
2023-03-11T23:11:04.966Z,25.58
2023-03-11T23:14:08.217Z,26.80
2023-03-11T23:17:12.493Z,21.75
2023-03-11T23:20:18.078Z,23.27
2023-03-11T23:23:21.358Z,21.05
2023-03-11T23:26:25.073Z,26.25
2023-03-11T23:29:28.309Z,25.52
2023-03-11T23:32:31.528Z,23.98
2023-03-11T23:35:41.326Z,26.98
2023-03-11T23:38:45.192Z,27.63
2023-03-11T23:41:48.350Z,25.15
2023-03-11T23:44:51.711Z,24.20
2023-03-11T23:47:54.978Z,20.60
2023-03-11T23:50:59.519Z,22.75
2023-03-11T23:54:02.726Z,20.15
2023-03-11T23:57:06.149Z,22.08
